createdAt,value
2023-03-04T00:00:28.690Z,2.60
2023-03-04T00:02:55.527Z,2.80
2023-03-04T00:05:22.439Z,2.70
2023-03-04T00:07:49.383Z,2.55
2023-03-04T00:10:16.357Z,3.00
2023-03-04T00:12:43.155Z,3.20
2023-03-04T00:15:10.316Z,2.63
2023-03-04T00:17:37.160Z,2.60
2023-03-04T00:20:04.108Z,2.35
2023-03-04T00:22:30.903Z,3.05
2023-03-04T00:24:57.719Z,2.30
2023-03-04T00:27:24.630Z,2.55
2023-03-04T00:29:51.580Z,3.67
2023-03-04T00:32:18.537Z,2.47
2023-03-04T00:34:45.474Z,2.42
2023-03-04T00:37:12.287Z,2.50
2023-03-04T00:39:39.190Z,2.72
2023-03-04T00:42:06.067Z,2.38
2023-03-04T00:44:33.079Z,3.85
2023-03-04T00:46:59.923Z,2.25
2023-03-04T00:49:26.799Z,3.53
2023-03-04T00:51:54.650Z,1.90
2023-03-04T00:54:21.674Z,2.50
2023-03-04T00:56:48.558Z,2.45
2023-03-04T00:59:15.435Z,2.40
2023-03-04T01:01:42.499Z,2.63
2023-03-04T01:04:09.315Z,2.33
2023-03-04T01:06:36.163Z,2.20
2023-03-04T01:09:03.095Z,2.10
2023-03-04T01:11:30.282Z,2.03
2023-03-04T01:13:57.130Z,2.20
2023-03-04T01:16:23.869Z,2.17
2023-03-04T01:18:50.744Z,2.10
2023-03-04T01:21:17.554Z,3.03
2023-03-04T01:23:44.343Z,2.47
2023-03-04T01:26:11.169Z,2.07
2023-03-04T01:28:38.016Z,2.47
2023-03-04T01:31:07.097Z,2.35
2023-03-04T01:33:34.688Z,2.88
2023-03-04T01:36:01.562Z,2.70
2023-03-04T01:38:28.403Z,1.57
2023-03-04T01:40:55.511Z,2.17
2023-03-04T01:43:27.569Z,1.90
2023-03-04T01:45:56.019Z,1.90
2023-03-04T01:48:27.838Z,2.08
2023-03-04T01:50:54.826Z,2.97
2023-03-04T01:53:24.981Z,2.55
2023-03-04T01:55:57.414Z,2.53
2023-03-04T01:58:32.057Z,2.10
2023-03-04T02:00:59.133Z,2.38
2023-03-04T02:03:26.064Z,2.30
2023-03-04T02:05:54.717Z,1.90
2023-03-04T02:08:23.257Z,2.70
2023-03-04T02:10:51.217Z,2.40
2023-03-04T02:13:18.364Z,2.28
2023-03-04T02:15:46.008Z,2.53
2023-03-04T02:18:16.786Z,2.22
2023-03-04T02:20:48.953Z,2.40
2023-03-04T02:23:39.212Z,3.40
2023-03-04T02:26:22.496Z,2.25
2023-03-04T02:28:53.739Z,2.60
2023-03-04T02:31:36.413Z,2.35
2023-03-04T02:34:12.777Z,2.30
2023-03-04T02:36:40.905Z,3.65
2023-03-04T02:39:15.464Z,2.20
2023-03-04T02:41:44.440Z,1.83
2023-03-04T02:44:22.000Z,2.20
2023-03-04T02:46:50.466Z,2.20
2023-03-04T02:49:18.782Z,2.30
2023-03-04T02:51:45.708Z,2.13
2023-03-04T02:54:21.317Z,2.53
2023-03-04T02:56:50.110Z,2.00
2023-03-04T02:59:17.941Z,1.90
2023-03-04T03:01:44.868Z,2.25
2023-03-04T03:04:12.932Z,2.47
2023-03-04T03:06:40.725Z,2.10
2023-03-04T03:09:08.160Z,2.03
2023-03-04T03:11:35.521Z,2.00
2023-03-04T03:14:03.815Z,2.50
2023-03-04T03:16:30.841Z,2.58
2023-03-04T03:18:57.846Z,1.97
2023-03-04T03:21:25.239Z,2.53
2023-03-04T03:23:52.137Z,2.60
2023-03-04T03:26:19.486Z,1.73
2023-03-04T03:28:46.426Z,2.05
2023-03-04T03:31:13.571Z,1.80
2023-03-04T03:33:40.567Z,1.73
2023-03-04T03:36:08.217Z,2.42
2023-03-04T03:38:35.496Z,2.42
2023-03-04T03:41:02.236Z,2.05
2023-03-04T03:43:29.184Z,3.03
2023-03-04T03:45:56.010Z,1.80
2023-03-04T03:48:22.898Z,2.17
2023-03-04T03:50:49.861Z,2.00
2023-03-04T03:53:16.691Z,1.98
2023-03-04T03:55:43.550Z,2.17
2023-03-04T03:58:10.397Z,1.98
2023-03-04T04:00:37.261Z,2.08
2023-03-04T04:03:04.221Z,1.90
2023-03-04T04:05:31.300Z,2.22
2023-03-04T04:07:58.100Z,2.23
2023-03-04T04:10:24.887Z,1.60
2023-03-04T04:12:51.879Z,2.08
2023-03-04T04:15:18.808Z,2.38
2023-03-04T04:17:45.696Z,1.75
2023-03-04T04:20:12.814Z,1.70
2023-03-04T04:22:39.747Z,1.70
2023-03-04T04:25:08.893Z,1.98
2023-03-04T04:27:35.719Z,2.30
2023-03-04T04:30:04.246Z,2.20
2023-03-04T04:32:31.089Z,1.53
2023-03-04T04:34:57.977Z,1.48
2023-03-04T04:37:24.939Z,1.83
2023-03-04T04:39:52.054Z,1.65
2023-03-04T04:42:18.951Z,2.30
2023-03-04T04:44:46.543Z,1.80
2023-03-04T04:47:13.446Z,1.80
2023-03-04T04:49:40.256Z,2.00
2023-03-04T04:52:07.301Z,1.85
2023-03-04T04:54:34.153Z,1.67
2023-03-04T04:57:01.011Z,2.43
2023-03-04T04:59:27.901Z,1.65
2023-03-04T05:01:54.661Z,1.80
2023-03-04T05:04:21.516Z,1.67
2023-03-04T05:06:48.544Z,1.90
2023-03-04T05:09:15.365Z,1.60
2023-03-04T05:11:42.245Z,1.95
2023-03-04T05:14:09.056Z,2.00
2023-03-04T05:16:35.957Z,1.38
2023-03-04T05:19:02.763Z,1.65
2023-03-04T05:21:29.598Z,1.93
2023-03-04T05:23:56.399Z,2.10
2023-03-04T05:26:23.645Z,1.75
2023-03-04T05:28:50.432Z,1.55
2023-03-04T05:31:17.945Z,1.50
2023-03-04T05:33:44.778Z,2.13
2023-03-04T05:36:11.773Z,1.95
2023-03-04T05:38:38.664Z,1.50
2023-03-04T05:41:07.564Z,1.75
2023-03-04T05:43:37.477Z,1.40
2023-03-04T05:46:05.165Z,2.10
2023-03-04T05:48:32.095Z,1.42
2023-03-04T05:51:01.120Z,1.70
2023-03-04T05:53:28.683Z,2.03
2023-03-04T05:55:55.727Z,1.85
2023-03-04T05:58:22.639Z,2.13
2023-03-04T06:00:49.509Z,1.95
2023-03-04T06:03:19.011Z,2.22
2023-03-04T06:05:45.899Z,1.63
2023-03-04T06:08:13.197Z,1.92
2023-03-04T06:10:41.690Z,1.90
2023-03-04T06:13:09.457Z,1.73
2023-03-04T06:15:36.429Z,2.03
2023-03-04T06:18:03.388Z,1.92
2023-03-04T06:20:30.236Z,1.58
2023-03-04T06:22:57.394Z,2.20
2023-03-04T06:25:24.458Z,1.90
2023-03-04T06:27:51.901Z,2.38
2023-03-04T06:30:19.628Z,2.05
2023-03-04T06:32:49.250Z,2.38
2023-03-04T06:35:17.201Z,2.03
2023-03-04T06:37:44.455Z,2.40
2023-03-04T06:40:11.887Z,2.22
2023-03-04T06:42:42.967Z,1.90
2023-03-04T06:45:10.957Z,2.78
2023-03-04T06:47:37.981Z,2.40
2023-03-04T06:50:05.686Z,2.10
2023-03-04T06:52:32.546Z,1.70
2023-03-04T06:54:59.356Z,1.90
2023-03-04T06:57:26.314Z,2.80
2023-03-04T06:59:53.121Z,2.37
2023-03-04T07:02:19.866Z,2.10
2023-03-04T07:04:46.867Z,2.50
2023-03-04T07:07:13.898Z,2.80
2023-03-04T07:09:40.967Z,1.83
2023-03-04T07:12:07.961Z,2.50
2023-03-04T07:14:34.860Z,2.03
2023-03-04T07:17:01.814Z,2.20
2023-03-04T07:19:28.691Z,2.72
2023-03-04T07:21:55.693Z,2.85
2023-03-04T07:24:22.534Z,2.50
2023-03-04T07:26:49.454Z,2.05
2023-03-04T07:29:16.371Z,2.13
2023-03-04T07:31:43.329Z,2.20
2023-03-04T07:34:13.707Z,1.77
2023-03-04T07:36:41.042Z,1.90
2023-03-04T07:39:08.659Z,1.50
2023-03-04T07:41:37.285Z,2.05
2023-03-04T07:44:05.891Z,1.90
2023-03-04T07:46:33.138Z,1.67
2023-03-04T07:49:00.185Z,1.80
2023-03-04T07:51:28.076Z,1.92
2023-03-04T07:53:58.714Z,1.98
2023-03-04T07:56:28.995Z,1.85
2023-03-04T07:58:56.325Z,2.20
2023-03-04T08:01:36.189Z,1.90
2023-03-04T08:04:04.785Z,2.00
2023-03-04T08:06:32.201Z,2.35
2023-03-04T08:09:05.656Z,1.50
2023-03-04T08:11:33.300Z,2.00
2023-03-04T08:14:00.192Z,2.10
2023-03-04T08:16:27.359Z,2.47
2023-03-04T08:18:57.069Z,1.98
2023-03-04T08:21:25.404Z,1.98
2023-03-04T08:23:52.806Z,2.65
2023-03-04T08:26:29.372Z,2.00
2023-03-04T08:28:56.866Z,1.88
2023-03-04T08:31:24.260Z,1.95
2023-03-04T08:33:52.676Z,1.40
2023-03-04T08:36:20.096Z,1.35
2023-03-04T08:38:46.872Z,1.80
2023-03-04T08:41:15.432Z,1.42
2023-03-04T08:43:42.744Z,1.83
2023-03-04T08:46:09.682Z,1.73
2023-03-04T08:48:39.441Z,1.80
2023-03-04T08:51:11.783Z,1.83
2023-03-04T08:53:39.321Z,1.75
2023-03-04T08:56:06.799Z,1.80
2023-03-04T08:58:34.133Z,1.73
2023-03-04T09:01:02.725Z,1.98
2023-03-04T09:03:29.909Z,1.63
2023-03-04T09:05:57.849Z,1.42
2023-03-04T09:08:25.259Z,1.80
2023-03-04T09:10:54.438Z,1.40
2023-03-04T09:13:24.026Z,1.27
2023-03-04T09:15:53.217Z,1.80
2023-03-04T09:18:22.292Z,1.27
2023-03-04T09:20:49.737Z,1.52
2023-03-04T09:23:17.611Z,1.50
2023-03-04T09:25:46.505Z,1.40
2023-03-04T09:28:14.026Z,1.97
2023-03-04T09:30:41.276Z,1.77
2023-03-04T09:33:08.679Z,1.80
2023-03-04T09:35:35.664Z,2.50
2023-03-04T09:38:05.950Z,2.33
2023-03-04T09:40:43.261Z,2.70
2023-03-04T09:43:25.121Z,2.63
2023-03-04T09:45:57.603Z,2.40
2023-03-04T09:48:28.891Z,2.30
2023-03-04T09:50:59.494Z,3.53
2023-03-04T09:53:40.190Z,10.33
2023-03-04T09:56:07.237Z,3.42
2023-03-04T09:59:01.659Z,2.92
2023-03-04T10:01:38.618Z,4.25
2023-03-04T10:04:17.517Z,5.85
2023-03-04T10:06:51.546Z,3.20
2023-03-04T10:09:26.158Z,3.83
2023-03-04T10:12:05.883Z,4.07
2023-03-04T10:14:46.799Z,4.82
2023-03-04T10:17:24.659Z,3.78
2023-03-04T10:19:59.365Z,2.97
2023-03-04T10:22:42.658Z,4.35
2023-03-04T10:25:26.590Z,4.00
2023-03-04T10:27:59.531Z,3.83
2023-03-04T10:30:56.342Z,4.00
2023-03-04T10:33:27.536Z,4.33
2023-03-04T10:36:02.867Z,3.28
2023-03-04T10:38:33.498Z,3.70
2023-03-04T10:41:00.348Z,3.45
2023-03-04T10:43:28.240Z,3.28
2023-03-04T10:45:58.011Z,2.30
2023-03-04T10:48:30.480Z,3.50
2023-03-04T10:51:13.165Z,3.05
2023-03-04T10:53:42.993Z,4.60
2023-03-04T10:56:34.228Z,3.75
2023-03-04T10:59:38.835Z,2.93
2023-03-04T11:02:21.234Z,2.33
2023-03-04T11:04:54.420Z,2.70
2023-03-04T11:07:23.358Z,1.90
2023-03-04T11:09:50.423Z,1.50
2023-03-04T11:12:21.231Z,1.83
2023-03-04T11:14:54.099Z,1.35
2023-03-04T11:17:27.095Z,1.50
2023-03-04T11:20:22.149Z,1.90
2023-03-04T11:23:03.578Z,1.60
2023-03-04T11:25:41.609Z,1.70
2023-03-04T11:28:38.351Z,1.40
2023-03-04T11:31:17.512Z,1.83
2023-03-04T11:33:53.094Z,2.03
2023-03-04T11:36:57.539Z,2.10
2023-03-04T11:39:50.911Z,1.90
2023-03-04T11:42:45.382Z,1.67
2023-03-04T11:45:30.476Z,1.50
2023-03-04T11:48:13.112Z,1.70
2023-03-04T11:50:54.086Z,2.10
2023-03-04T11:53:45.607Z,2.13
2023-03-04T11:56:28.265Z,1.60
2023-03-04T11:59:17.888Z,1.80
2023-03-04T12:02:09.798Z,1.85
2023-03-04T12:04:48.729Z,1.77
2023-03-04T12:07:30.367Z,1.60
2023-03-04T12:10:17.033Z,1.67
2023-03-04T12:13:04.790Z,1.70
2023-03-04T12:16:25.018Z,1.45
2023-03-04T12:19:26.997Z,1.40
2023-03-04T12:22:20.224Z,1.50
2023-03-04T12:28:34.507Z,1.10
2023-03-04T12:31:19.899Z,1.55
2023-03-04T12:33:59.072Z,1.60
2023-03-04T12:36:38.875Z,1.70
2023-03-04T12:39:17.069Z,1.70
2023-03-04T12:42:13.221Z,1.33
2023-03-04T12:44:53.977Z,1.88
2023-03-04T12:47:28.865Z,1.27
2023-03-04T12:50:04.696Z,1.60
2023-03-04T12:52:47.745Z,1.25
2023-03-04T12:55:18.977Z,1.50
2023-03-04T12:57:46.629Z,1.40
2023-03-04T13:00:19.340Z,1.80
2023-03-04T13:02:55.285Z,2.37
2023-03-04T13:05:48.626Z,1.70
2023-03-04T13:08:38.465Z,2.25
2023-03-04T13:11:43.253Z,1.83
2023-03-04T13:14:17.644Z,2.10
2023-03-04T13:16:47.044Z,1.80
2023-03-04T13:19:42.089Z,1.83
2023-03-04T13:22:38.279Z,2.28
2023-03-04T13:25:37.986Z,1.80
2023-03-04T13:28:13.809Z,2.00
2023-03-04T13:31:02.917Z,2.37
2023-03-04T13:33:35.563Z,1.85
2023-03-04T13:36:32.088Z,2.38
2023-03-04T13:39:23.818Z,2.70
2023-03-04T13:41:53.709Z,2.42
2023-03-04T13:44:57.113Z,2.37
2023-03-04T13:47:40.515Z,2.53
2023-03-04T13:50:24.601Z,2.85
2023-03-04T13:52:51.775Z,2.63
2023-03-04T13:55:37.206Z,2.45
2023-03-04T13:58:26.476Z,2.50
2023-03-04T14:00:55.930Z,2.50
2023-03-04T14:03:31.157Z,2.92
2023-03-04T14:06:23.147Z,2.85
2023-03-04T14:08:52.034Z,3.38
2023-03-04T14:11:28.139Z,2.77
2023-03-04T14:13:57.135Z,2.55
2023-03-04T14:16:27.833Z,3.20
2023-03-04T14:19:07.403Z,3.75
2023-03-04T14:21:36.810Z,2.28
2023-03-04T14:24:11.223Z,3.47
2023-03-04T14:26:38.070Z,2.50
2023-03-04T14:29:24.177Z,2.70
2023-03-04T14:31:51.679Z,2.05
2023-03-04T14:34:39.792Z,2.53
2023-03-04T14:37:25.158Z,2.27
2023-03-04T14:39:57.088Z,2.20
2023-03-04T14:42:31.422Z,2.28
2023-03-04T14:45:00.207Z,2.10
2023-03-04T14:47:39.072Z,2.08
2023-03-04T14:50:08.397Z,2.10
2023-03-04T14:52:38.026Z,2.40
2023-03-04T14:55:25.961Z,2.28
2023-03-04T14:57:58.546Z,2.83
2023-03-04T15:00:28.106Z,1.90
2023-03-04T15:02:57.599Z,2.50
2023-03-04T15:05:28.335Z,2.30
2023-03-04T15:07:57.898Z,2.35
2023-03-04T15:10:31.229Z,2.10
2023-03-04T15:13:01.560Z,2.40
2023-03-04T15:15:31.727Z,2.50
2023-03-04T15:18:04.144Z,2.70
2023-03-04T15:20:32.036Z,2.13
2023-03-04T15:23:01.716Z,2.38
2023-03-04T15:25:29.146Z,2.50
2023-03-04T15:27:57.071Z,2.20
2023-03-04T15:30:27.618Z,2.42
2023-03-04T15:32:56.542Z,1.40
2023-03-04T15:35:24.823Z,1.70
2023-03-04T15:37:55.402Z,1.77
2023-03-04T15:40:27.465Z,1.87
2023-03-04T15:42:56.703Z,1.65
2023-03-04T15:45:36.727Z,1.60
2023-03-04T15:48:07.952Z,1.60
2023-03-04T15:50:44.180Z,1.90
2023-03-04T15:53:35.086Z,1.90
2023-03-04T15:56:03.970Z,1.65
2023-03-04T15:58:34.844Z,1.67
2023-03-04T16:01:02.431Z,1.80
2023-03-04T16:03:29.402Z,1.77
2023-03-04T16:05:56.928Z,1.80
2023-03-04T16:08:27.325Z,1.33
2023-03-04T16:10:55.040Z,1.85
2023-03-04T16:13:24.107Z,1.58
2023-03-04T16:15:51.237Z,1.92
2023-03-04T16:18:21.243Z,1.53
2023-03-04T16:20:49.831Z,2.25
2023-03-04T16:23:23.537Z,2.17
2023-03-04T16:25:55.466Z,2.03
2023-03-04T16:28:22.719Z,1.80
2023-03-04T16:30:50.145Z,2.40
2023-03-04T16:33:17.391Z,2.00
2023-03-04T16:35:45.337Z,1.90
2023-03-04T16:38:33.326Z,2.13
2023-03-04T16:41:04.500Z,1.80
2023-03-04T16:43:31.284Z,2.43
2023-03-04T16:45:58.318Z,2.13
2023-03-04T16:48:25.400Z,2.08
2023-03-04T16:50:52.296Z,2.00
2023-03-04T16:53:31.870Z,2.22
2023-03-04T16:56:04.301Z,2.10
2023-03-04T16:58:31.229Z,2.00
2023-03-04T17:00:58.056Z,2.30
2023-03-04T17:03:24.829Z,2.10
2023-03-04T17:05:51.760Z,2.30
2023-03-04T17:08:19.557Z,2.00
2023-03-04T17:10:47.394Z,2.25
2023-03-04T17:13:14.641Z,2.30
2023-03-04T17:15:45.473Z,1.55
2023-03-04T17:18:12.427Z,2.25
2023-03-04T17:20:40.612Z,1.97
2023-03-04T17:23:07.534Z,1.70
2023-03-04T17:25:34.536Z,2.28
2023-03-04T17:28:01.434Z,2.40
2023-03-04T17:30:28.283Z,2.30
2023-03-04T17:32:55.242Z,2.13
2023-03-04T17:35:22.563Z,3.03
2023-03-04T17:37:49.493Z,2.10
2023-03-04T17:40:16.595Z,2.50
2023-03-04T17:42:43.766Z,2.35
2023-03-04T17:45:11.455Z,2.77
2023-03-04T17:47:39.220Z,1.90
2023-03-04T17:50:07.682Z,2.00
2023-03-04T17:52:34.474Z,1.80
2023-03-04T17:55:01.339Z,2.72
2023-03-04T17:57:28.836Z,2.30
2023-03-04T17:59:56.185Z,2.95
2023-03-04T18:02:23.300Z,2.33
2023-03-04T18:04:50.854Z,2.25
2023-03-04T18:07:18.172Z,2.00
2023-03-04T18:09:47.163Z,2.70
2023-03-04T18:12:14.591Z,2.15
2023-03-04T18:14:41.522Z,2.80
2023-03-04T18:17:08.383Z,2.13
2023-03-04T18:19:35.210Z,3.08
2023-03-04T18:22:02.143Z,2.53
2023-03-04T18:24:29.011Z,2.45
2023-03-04T18:26:56.855Z,2.58
2023-03-04T18:29:23.814Z,4.20
2023-03-04T18:31:51.125Z,2.33
2023-03-04T18:34:18.312Z,4.10
2023-03-04T18:36:47.574Z,4.55
2023-03-04T18:39:15.571Z,3.80
2023-03-04T18:41:42.399Z,3.58
2023-03-04T18:44:09.868Z,4.43
2023-03-04T18:46:48.447Z,3.63
2023-03-04T18:49:15.614Z,3.22
2023-03-04T18:51:42.757Z,3.35
2023-03-04T18:54:09.811Z,2.50
2023-03-04T18:56:38.231Z,2.75
2023-03-04T18:59:10.185Z,3.33
2023-03-04T19:01:37.321Z,2.30
2023-03-04T19:04:05.607Z,2.47
2023-03-04T19:06:33.663Z,2.50
2023-03-04T19:09:01.031Z,2.58
2023-03-04T19:11:32.559Z,2.33
2023-03-04T19:13:59.398Z,2.33
2023-03-04T19:16:26.650Z,2.72
2023-03-04T19:18:53.813Z,2.22
2023-03-04T19:21:20.771Z,2.42
2023-03-04T19:23:47.969Z,2.90
2023-03-04T19:26:15.526Z,2.42
2023-03-04T19:28:42.803Z,2.30
2023-03-04T19:31:11.166Z,2.20
2023-03-04T19:33:41.254Z,2.60
2023-03-04T19:36:09.265Z,2.40
2023-03-04T19:38:36.419Z,2.67
2023-03-04T19:41:16.912Z,2.60
2023-03-04T19:43:46.066Z,2.38
2023-03-04T19:46:16.063Z,2.67
2023-03-04T19:48:45.000Z,2.73
2023-03-04T19:51:23.113Z,2.83
2023-03-04T19:53:53.250Z,3.28
2023-03-04T19:56:21.030Z,3.03
2023-03-04T19:58:48.414Z,2.80
2023-03-04T20:01:29.205Z,2.73
2023-03-04T20:03:58.242Z,2.75
2023-03-04T20:06:27.151Z,2.33
2023-03-04T20:08:58.150Z,3.08
2023-03-04T20:11:25.647Z,2.85
2023-03-04T20:13:52.779Z,9.30
2023-03-04T20:16:20.035Z,13.25
2023-03-04T20:18:47.300Z,11.88
2023-03-04T20:21:14.121Z,12.60
2023-03-04T20:23:41.057Z,17.45
2023-03-04T20:26:11.417Z,4.87
2023-03-04T20:28:49.600Z,6.25
2023-03-04T20:31:31.834Z,5.18
2023-03-04T20:33:59.944Z,9.65
2023-03-04T20:36:28.379Z,6.65
2023-03-04T20:39:01.987Z,4.53
2023-03-04T20:41:29.560Z,13.85
2023-03-04T20:43:56.500Z,5.65
2023-03-04T20:46:43.244Z,4.57
2023-03-04T20:49:13.255Z,4.50
2023-03-04T20:51:40.133Z,3.83
2023-03-04T20:54:07.943Z,3.92
2023-03-04T20:56:35.766Z,5.22
2023-03-04T20:59:04.370Z,2.90
2023-03-04T21:01:32.079Z,4.40
2023-03-04T21:03:59.954Z,3.00
2023-03-04T21:06:29.202Z,3.88
2023-03-04T21:08:57.512Z,10.55
2023-03-04T21:11:28.114Z,15.75
2023-03-04T21:13:57.581Z,5.32
2023-03-04T21:16:27.598Z,15.27
2023-03-04T21:18:54.537Z,9.88
2023-03-04T21:21:27.934Z,10.88
2023-03-04T21:23:56.656Z,7.10
2023-03-04T21:26:26.355Z,3.80
2023-03-04T21:28:54.189Z,3.70
2023-03-04T21:31:27.866Z,4.50
2023-03-04T21:33:56.425Z,6.20
2023-03-04T21:36:23.527Z,7.75
2023-03-04T21:38:50.420Z,10.23
2023-03-04T21:41:20.031Z,10.93
2023-03-04T21:43:46.812Z,5.55
2023-03-04T21:46:15.504Z,6.47
2023-03-04T21:48:43.422Z,5.03
2023-03-04T21:51:13.576Z,5.35
2023-03-04T21:53:41.051Z,3.80
2023-03-04T21:56:07.897Z,5.88
2023-03-04T21:58:35.415Z,5.50
2023-03-04T22:01:10.289Z,4.95
2023-03-04T22:03:37.305Z,9.07
2023-03-04T22:06:09.511Z,8.30
2023-03-04T22:08:37.439Z,8.95
2023-03-04T22:11:06.364Z,11.65
2023-03-04T22:13:34.015Z,9.52
2023-03-04T22:16:02.178Z,7.32
2023-03-04T22:18:29.272Z,8.83
2023-03-04T22:21:08.446Z,5.75
2023-03-04T22:23:35.671Z,7.72
2023-03-04T22:26:09.506Z,8.93
2023-03-04T22:28:37.578Z,6.63
2023-03-04T22:31:21.322Z,8.10
2023-03-04T22:33:48.332Z,7.10
2023-03-04T22:36:15.345Z,8.10
2023-03-04T22:38:44.439Z,9.73
2023-03-04T22:41:19.648Z,7.30
2023-03-04T22:43:47.410Z,8.83
2023-03-04T22:46:21.167Z,14.23
2023-03-04T22:48:49.653Z,14.23
2023-03-04T22:51:16.885Z,9.25
2023-03-04T22:53:44.047Z,8.50
2023-03-04T22:56:14.065Z,8.07
2023-03-04T22:58:41.682Z,5.78
2023-03-04T23:01:09.713Z,3.42
2023-03-04T23:03:37.788Z,3.33
2023-03-04T23:06:13.468Z,3.38
2023-03-04T23:08:42.232Z,5.63
2023-03-04T23:11:14.738Z,6.20
2023-03-04T23:13:42.293Z,5.28
2023-03-04T23:16:12.073Z,4.45
2023-03-04T23:18:40.540Z,3.75
2023-03-04T23:21:12.792Z,4.13
2023-03-04T23:23:41.251Z,3.63
2023-03-04T23:26:27.330Z,2.72
2023-03-04T23:29:01.265Z,2.80
2023-03-04T23:31:29.247Z,3.85
2023-03-04T23:33:57.632Z,3.53
2023-03-04T23:36:27.039Z,3.45
2023-03-04T23:38:54.222Z,3.30
2023-03-04T23:41:24.492Z,3.00
2023-03-04T23:43:53.986Z,3.38
2023-03-04T23:46:21.460Z,3.50
2023-03-04T23:48:48.774Z,3.45
2023-03-04T23:51:18.144Z,3.00
2023-03-04T23:53:45.688Z,3.17
2023-03-04T23:56:15.465Z,3.60
2023-03-04T23:58:42.848Z,3.13
